createdAt,value
2019-03-01T00:01:26.550Z,17.87
2019-03-01T00:08:02.543Z,14.53
2019-03-01T00:11:21.513Z,12.93
2019-03-01T00:14:59.678Z,14.87
2019-03-01T00:22:41.943Z,18.77
2019-03-01T00:30:33.527Z,13.53
2019-03-01T00:34:18.663Z,21.00
2019-03-01T00:37:57.592Z,16.13
2019-03-01T00:41:42.615Z,13.77
2019-03-01T00:48:50.360Z,17.40
2019-03-01T00:52:09.504Z,16.53
2019-03-01T00:55:28.604Z,16.87
2019-03-01T00:58:46.850Z,15.47
2019-03-01T01:02:05.283Z,15.83
2019-03-01T01:05:24.428Z,17.87
2019-03-01T01:08:43.229Z,15.47
2019-03-01T01:11:50.197Z,15.80
2019-03-01T01:14:57.163Z,17.27
2019-03-01T01:18:23.042Z,17.07
2019-03-01T01:21:29.986Z,15.57
2019-03-01T01:24:36.899Z,15.10
2019-03-01T01:27:43.934Z,16.83
2019-03-01T01:31:09.850Z,15.13
2019-03-01T01:34:16.751Z,17.53
2019-03-01T01:37:42.634Z,14.53
2019-03-01T01:40:49.601Z,16.00
2019-03-01T01:44:15.613Z,16.60
2019-03-01T01:47:41.550Z,17.83
2019-03-01T01:54:36.505Z,20.10
2019-03-01T01:57:54.709Z,15.63
2019-03-01T02:01:12.976Z,16.23
2019-03-01T02:04:31.800Z,14.37
2019-03-01T02:07:51.123Z,15.00
2019-03-01T02:11:09.752Z,19.33
2019-03-01T02:14:28.036Z,19.97
2019-03-01T02:17:46.975Z,15.87
2019-03-01T02:21:05.539Z,21.40
2019-03-01T02:24:24.451Z,19.47
2019-03-01T02:27:43.458Z,20.97
2019-03-01T02:31:01.869Z,19.53
2019-03-01T02:34:20.750Z,15.37
2019-03-01T02:37:39.607Z,20.67
2019-03-01T02:40:58.453Z,18.53
2019-03-01T02:44:05.455Z,21.13
2019-03-01T02:50:34.548Z,22.50
2019-03-01T02:53:53.658Z,15.53
2019-03-01T02:57:12.324Z,16.57
2019-03-01T03:00:31.060Z,19.73
2019-03-01T03:03:49.420Z,16.77
2019-03-01T03:11:00.984Z,21.03
2019-03-01T03:14:07.945Z,17.17
2019-03-01T03:17:33.987Z,17.30
2019-03-01T03:21:00.042Z,14.27
2019-03-01T03:24:26.030Z,15.33
2019-03-01T03:27:52.171Z,18.97
2019-03-01T03:31:16.609Z,10.37
2019-03-01T03:34:23.449Z,12.30
2019-03-01T03:37:50.163Z,13.30
2019-03-01T03:41:16.127Z,13.10
2019-03-01T03:44:59.624Z,10.83
2019-03-01T03:48:25.609Z,11.87
2019-03-01T03:51:51.590Z,12.90
2019-03-01T03:55:17.623Z,10.13
2019-03-01T03:58:43.584Z,12.33
2019-03-01T04:02:09.589Z,10.20
2019-03-01T04:05:35.551Z,10.37
2019-03-01T04:09:01.478Z,8.93
2019-03-01T04:12:27.402Z,7.43
2019-03-01T04:15:53.332Z,8.60
2019-03-01T04:23:04.450Z,8.93
2019-03-01T04:26:30.388Z,10.30
2019-03-01T04:29:56.286Z,8.93
2019-03-01T04:37:11.317Z,11.30
2019-03-01T04:40:37.221Z,9.03
2019-03-01T04:44:03.224Z,9.27
2019-03-01T04:47:29.124Z,9.70
2019-03-01T04:50:47.263Z,8.43
2019-03-01T04:54:04.318Z,7.83
2019-03-01T04:57:30.248Z,9.63
2019-03-01T05:04:30.058Z,10.63
2019-03-01T05:07:55.993Z,8.40
2019-03-01T05:11:22.049Z,9.40
2019-03-01T05:18:33.107Z,6.13
2019-03-01T05:22:01.018Z,7.83
2019-03-01T05:25:27.095Z,12.00
2019-03-01T05:28:52.983Z,6.80
2019-03-01T05:32:18.884Z,12.67
2019-03-01T05:39:29.680Z,10.57
2019-03-01T05:42:55.606Z,11.60
2019-03-01T05:46:21.570Z,9.37
2019-03-01T05:49:40.483Z,7.73
2019-03-01T05:52:59.407Z,9.63
2019-03-01T05:56:18.186Z,9.53
2019-03-01T05:59:36.325Z,10.50
2019-03-01T06:02:57.285Z,11.07
2019-03-01T06:06:16.128Z,8.53
2019-03-01T06:09:34.584Z,9.50
2019-03-01T06:12:52.699Z,8.57
2019-03-01T06:16:15.681Z,11.63
2019-03-01T06:20:00.666Z,13.37
2019-03-01T06:23:45.782Z,9.00
2019-03-01T06:27:30.788Z,10.40
2019-03-01T06:31:15.847Z,9.20
2019-03-01T06:35:00.851Z,9.17
2019-03-01T06:39:04.806Z,9.00
2019-03-01T06:42:49.779Z,8.30
2019-03-01T06:46:34.698Z,10.13
2019-03-01T06:53:43.696Z,9.57
2019-03-01T06:57:02.244Z,7.93
2019-03-01T07:00:21.052Z,7.60
2019-03-01T07:03:39.970Z,12.10
2019-03-01T07:07:00.868Z,6.10
2019-03-01T07:10:19.843Z,6.90
2019-03-01T07:13:38.130Z,9.37
2019-03-01T07:16:57.236Z,8.43
2019-03-01T07:20:16.393Z,10.50
2019-03-01T07:23:37.031Z,8.20
2019-03-01T07:26:54.385Z,9.83
2019-03-01T07:30:13.274Z,8.63
2019-03-01T07:33:32.169Z,7.70
2019-03-01T07:36:50.219Z,8.07
2019-03-01T07:40:08.230Z,7.73
2019-03-01T07:43:27.068Z,9.23
2019-03-01T07:46:52.555Z,9.30
2019-03-01T07:50:05.046Z,7.50
2019-03-01T07:53:23.340Z,8.17
2019-03-01T07:56:42.179Z,10.07
2019-03-01T08:00:00.867Z,9.63
2019-03-01T08:03:19.027Z,9.93
2019-03-01T08:06:37.678Z,10.17
2019-03-01T08:09:56.825Z,7.77
2019-03-01T08:13:17.655Z,9.57
2019-03-01T08:16:35.545Z,8.47
2019-03-01T08:19:54.985Z,7.80
2019-03-01T08:23:14.458Z,5.83
2019-03-01T08:26:34.063Z,8.53
2019-03-01T08:29:53.042Z,6.63
2019-03-01T08:33:11.251Z,6.23
2019-03-01T08:36:29.914Z,6.73
2019-03-01T08:39:49.714Z,6.17
2019-03-01T08:43:11.700Z,6.07
2019-03-01T08:46:28.055Z,4.53
2019-03-01T08:49:44.946Z,5.87
2019-03-01T08:53:11.388Z,10.37
2019-03-01T08:56:55.908Z,7.13
2019-03-01T09:00:26.437Z,5.40
2019-03-01T09:04:09.458Z,6.60
2019-03-01T09:07:35.353Z,5.67
2019-03-01T09:11:01.200Z,7.83
2019-03-01T09:18:14.637Z,5.27
2019-03-01T09:21:58.896Z,8.30
2019-03-01T09:25:25.775Z,6.90
2019-03-01T09:28:51.966Z,4.83
2019-03-01T09:32:19.128Z,6.37
2019-03-01T09:39:34.339Z,5.70
2019-03-01T09:43:01.095Z,4.73
2019-03-01T09:46:28.264Z,5.60
2019-03-01T09:50:05.280Z,5.43
2019-03-01T09:53:24.167Z,5.10
2019-03-01T09:56:42.986Z,7.33
2019-03-01T10:00:01.993Z,5.60
2019-03-01T10:03:22.212Z,5.57
2019-03-01T10:06:40.485Z,6.20
2019-03-01T10:09:59.433Z,5.57
2019-03-01T10:13:17.660Z,5.03
2019-03-01T10:16:36.553Z,5.17
2019-03-01T10:19:55.691Z,8.23
2019-03-01T10:23:14.809Z,7.03
2019-03-01T10:26:33.968Z,4.37
2019-03-01T10:29:52.933Z,6.23
2019-03-01T10:33:11.822Z,6.37
2019-03-01T10:36:30.911Z,5.57
2019-03-01T10:39:55.328Z,6.10
2019-03-01T10:43:09.586Z,6.40
2019-03-01T10:46:27.769Z,5.27
2019-03-01T10:49:45.929Z,6.03
2019-03-01T10:53:11.979Z,4.33
2019-03-01T10:56:37.881Z,3.63
2019-03-01T11:04:13.382Z,8.33
2019-03-01T11:07:39.388Z,5.87
2019-03-01T11:11:05.352Z,4.77
2019-03-01T11:14:31.275Z,4.37
2019-03-01T11:17:57.408Z,4.20
2019-03-01T11:21:23.396Z,6.13
2019-03-01T11:24:30.453Z,5.03
2019-03-01T11:27:37.376Z,5.33
2019-03-01T11:34:07.299Z,8.60
2019-03-01T11:37:33.250Z,7.07
2019-03-01T11:41:00.282Z,7.37
2019-03-01T11:44:26.310Z,7.63
2019-03-01T11:47:52.354Z,7.30
2019-03-01T11:51:10.680Z,5.07
2019-03-01T11:54:29.262Z,6.17
2019-03-01T11:57:48.093Z,7.30
2019-03-01T12:01:06.268Z,5.77
2019-03-01T12:04:25.179Z,6.27
2019-03-01T12:07:44.030Z,4.73
2019-03-01T12:11:05.076Z,6.10
2019-03-01T12:14:24.079Z,5.03
2019-03-01T12:17:42.337Z,5.13
2019-03-01T12:21:01.342Z,6.77
2019-03-01T12:24:19.521Z,6.40
2019-03-01T12:27:37.733Z,6.10
2019-03-01T12:30:56.182Z,6.17
2019-03-01T12:34:14.930Z,5.77
2019-03-01T12:37:33.336Z,6.03
2019-03-01T12:40:52.385Z,6.20
2019-03-01T12:44:10.739Z,6.50
2019-03-01T12:47:29.013Z,6.97
2019-03-01T12:50:47.708Z,4.67
2019-03-01T12:54:06.671Z,6.27
2019-03-01T12:57:24.963Z,6.73
2019-03-01T13:00:43.151Z,7.40
2019-03-01T13:04:01.730Z,7.70
2019-03-01T13:07:20.356Z,6.00
2019-03-01T13:10:41.452Z,6.47
2019-03-01T13:13:59.729Z,6.43
2019-03-01T13:17:16.668Z,6.10
2019-03-01T13:20:42.643Z,7.67
2019-03-01T13:24:08.578Z,7.87
2019-03-01T13:27:34.526Z,9.27
2019-03-01T13:31:00.539Z,7.50
2019-03-01T13:34:26.801Z,8.93
2019-03-01T13:37:33.878Z,10.87
2019-03-01T13:41:02.077Z,10.60
2019-03-01T13:44:45.491Z,7.43
2019-03-01T13:48:11.513Z,7.90
2019-03-01T13:51:30.431Z,9.50
2019-03-01T13:54:48.836Z,10.57
2019-03-01T13:58:07.778Z,9.70
2019-03-01T14:01:27.098Z,10.50
2019-03-01T14:04:46.604Z,11.83
2019-03-01T14:08:09.071Z,11.50
2019-03-01T14:11:25.418Z,9.03
2019-03-01T14:14:43.893Z,13.10
2019-03-01T14:18:02.838Z,16.00
2019-03-01T14:21:21.113Z,9.87
2019-03-01T14:24:40.690Z,7.27
2019-03-01T14:27:58.842Z,10.97
2019-03-01T14:31:17.089Z,13.20
2019-03-01T14:34:36.156Z,13.90
2019-03-01T14:37:55.652Z,9.60
2019-03-01T14:41:14.852Z,12.67
2019-03-01T14:44:34.645Z,10.67
2019-03-01T14:47:53.225Z,14.43
2019-03-01T14:51:11.834Z,13.37
2019-03-01T14:54:30.812Z,12.23
2019-03-01T14:57:49.644Z,18.27
2019-03-01T15:01:08.295Z,18.67
2019-03-01T15:04:28.984Z,21.50
2019-03-01T15:07:46.884Z,24.67
2019-03-01T15:11:08.116Z,19.87
2019-03-01T15:14:26.218Z,24.57
2019-03-01T15:17:44.400Z,17.17
2019-03-01T15:21:05.681Z,27.77
2019-03-01T15:24:24.228Z,28.50
2019-03-01T15:27:42.618Z,28.90
2019-03-01T15:31:03.653Z,22.93
2019-03-01T15:34:24.077Z,21.83
2019-03-01T15:37:42.396Z,22.23
2019-03-01T15:41:03.589Z,20.47
2019-03-01T15:44:21.326Z,23.53
2019-03-01T15:47:39.543Z,24.43
2019-03-01T15:50:59.085Z,20.50
2019-03-01T15:54:17.045Z,27.57
2019-03-01T15:57:42.993Z,26.30
2019-03-01T16:01:11.904Z,24.67
2019-03-01T16:04:54.699Z,24.20
2019-03-01T16:08:20.649Z,27.07
2019-03-01T16:12:09.152Z,29.57
2019-03-01T16:15:25.740Z,29.83
2019-03-01T16:18:35.455Z,32.73
2019-03-01T16:21:43.009Z,26.63
2019-03-01T16:25:08.730Z,24.53
2019-03-01T16:28:15.545Z,25.77
2019-03-01T16:31:22.343Z,26.67
2019-03-01T16:34:29.310Z,32.77
2019-03-01T16:37:37.708Z,31.20
2019-03-01T16:40:44.817Z,27.63
2019-03-01T16:43:51.796Z,31.33
2019-03-01T16:47:03.539Z,29.67
2019-03-01T16:50:28.307Z,29.87
2019-03-01T16:53:36.615Z,30.73
2019-03-01T16:57:02.886Z,30.17
2019-03-01T17:00:28.855Z,26.40
2019-03-01T17:03:54.842Z,30.93
2019-03-01T17:07:21.541Z,31.30
2019-03-01T17:11:06.666Z,29.43
2019-03-01T17:14:54.522Z,30.33
2019-03-01T17:18:20.509Z,32.10
2019-03-01T17:21:50.571Z,32.33
2019-03-01T17:25:31.683Z,32.17
2019-03-01T17:28:59.746Z,32.67
2019-03-01T17:32:45.821Z,33.80
2019-03-01T17:36:13.037Z,33.17
2019-03-01T17:44:08.624Z,35.50
2019-03-01T17:47:51.286Z,28.93
2019-03-01T17:51:09.708Z,35.27
2019-03-01T17:54:18.997Z,31.67
2019-03-01T17:58:05.254Z,33.63
2019-03-01T18:01:28.114Z,34.23
2019-03-01T18:04:54.238Z,34.93
2019-03-01T18:08:20.325Z,37.53
2019-03-01T18:11:46.280Z,37.00
2019-03-01T18:15:13.395Z,34.73
2019-03-01T18:18:57.857Z,31.37
2019-03-01T18:22:07.239Z,32.80
2019-03-01T18:25:14.222Z,38.60
2019-03-01T18:28:40.095Z,34.20
2019-03-01T18:31:46.990Z,35.03
2019-03-01T18:34:53.914Z,35.30
2019-03-01T18:38:00.847Z,34.60
2019-03-01T18:41:07.826Z,35.47
2019-03-01T18:44:33.717Z,29.73
2019-03-01T18:47:59.698Z,33.57
2019-03-01T18:51:18.693Z,34.23
2019-03-01T18:54:39.773Z,30.10
2019-03-01T18:57:56.765Z,31.67
2019-03-01T19:01:04.118Z,38.43
2019-03-01T19:04:30.072Z,29.37
2019-03-01T19:07:56.069Z,32.07
2019-03-01T19:11:22.139Z,34.90
2019-03-01T19:14:48.116Z,33.37
2019-03-01T19:18:16.912Z,36.17
2019-03-01T19:21:59.509Z,33.77
2019-03-01T19:25:26.560Z,29.87
2019-03-01T19:29:10.549Z,33.60
2019-03-01T19:32:36.575Z,30.60
2019-03-01T19:36:03.548Z,30.67
2019-03-01T19:39:47.720Z,28.33
2019-03-01T19:43:13.789Z,28.37
2019-03-01T19:46:39.771Z,24.70
2019-03-01T19:49:59.315Z,23.77
2019-03-01T19:53:17.897Z,25.40
2019-03-01T19:56:36.267Z,23.40
2019-03-01T19:59:55.209Z,22.87
2019-03-01T20:03:13.458Z,17.47
2019-03-01T20:06:31.737Z,23.10
2019-03-01T20:09:50.221Z,19.73
2019-03-01T20:13:09.073Z,20.97
2019-03-01T20:16:27.815Z,17.63
2019-03-01T20:19:46.573Z,15.47
2019-03-01T20:23:05.434Z,16.63
2019-03-01T20:26:26.670Z,17.17
2019-03-01T20:29:45.158Z,19.13
2019-03-01T20:33:03.441Z,18.93
2019-03-01T20:36:22.210Z,20.57
2019-03-01T20:39:40.411Z,19.30
2019-03-01T20:43:06.405Z,18.13
2019-03-01T20:46:19.749Z,23.03
2019-03-01T20:49:39.375Z,21.33
2019-03-01T20:52:58.046Z,17.73
2019-03-01T20:56:17.143Z,22.10
2019-03-01T20:59:35.709Z,17.43
2019-03-01T21:02:54.339Z,16.43
2019-03-01T21:06:13.247Z,17.77
2019-03-01T21:09:32.109Z,19.30
2019-03-01T21:12:50.336Z,20.27
2019-03-01T21:16:09.403Z,19.77
2019-03-01T21:19:27.706Z,19.43
2019-03-01T21:22:46.669Z,21.20
2019-03-01T21:26:05.807Z,20.57
2019-03-01T21:29:24.590Z,17.53
2019-03-01T21:32:46.873Z,16.43
2019-03-01T21:36:03.798Z,16.77
2019-03-01T21:39:24.092Z,14.30
2019-03-01T21:42:42.442Z,18.30
2019-03-01T21:46:01.355Z,14.10
2019-03-01T21:49:19.668Z,17.63
2019-03-01T21:52:38.380Z,11.70
2019-03-01T21:55:56.481Z,14.73
2019-03-01T21:59:17.197Z,17.37
2019-03-01T22:02:35.669Z,12.60
2019-03-01T22:05:54.646Z,13.53
2019-03-01T22:09:13.553Z,15.43
2019-03-01T22:12:32.373Z,13.70
2019-03-01T22:15:52.598Z,16.00
2019-03-01T22:19:11.445Z,16.57
2019-03-01T22:22:29.604Z,14.60
2019-03-01T22:25:48.642Z,12.67
2019-03-01T22:29:08.807Z,13.87
2019-03-01T22:32:28.084Z,15.70
2019-03-01T22:35:46.449Z,17.77
2019-03-01T22:39:05.739Z,13.77
2019-03-01T22:42:24.707Z,15.93
2019-03-01T22:45:41.820Z,15.33
2019-03-01T22:49:00.822Z,18.77
2019-03-01T22:52:07.797Z,17.07
2019-03-01T22:55:36.833Z,14.43
2019-03-01T22:59:00.015Z,14.37
2019-03-01T23:02:26.161Z,22.20
2019-03-01T23:05:52.124Z,14.87
2019-03-01T23:12:52.080Z,14.20
2019-03-01T23:20:03.411Z,13.87
2019-03-01T23:23:29.551Z,14.30
2019-03-01T23:26:56.812Z,11.23
2019-03-01T23:30:41.186Z,12.33
2019-03-01T23:34:07.808Z,12.33
2019-03-01T23:37:52.900Z,13.43
2019-03-01T23:41:18.970Z,15.87
2019-03-01T23:44:45.067Z,11.57
2019-03-01T23:48:13.655Z,11.07
2019-03-01T23:51:49.426Z,10.20
2019-03-01T23:55:08.251Z,12.33
2019-03-01T23:58:28.438Z,11.63
